createdAt,value
2022-11-10T21:54:09.295Z,14.74
2022-11-10T21:56:35.774Z,14.43
2022-11-10T21:59:02.442Z,14.40
2022-11-10T22:01:29.014Z,14.38
2022-11-10T22:03:55.566Z,14.36
2022-11-10T22:06:22.511Z,14.37
2022-11-10T22:08:50.603Z,14.36
2022-11-10T22:11:39.748Z,14.40
2022-11-10T22:14:31.679Z,14.42
2022-11-10T22:17:18.326Z,14.38
2022-11-10T22:19:45.096Z,14.34
2022-11-10T22:22:14.313Z,14.34
2022-11-10T22:24:40.876Z,14.35
2022-11-10T22:27:08.222Z,14.36
2022-11-10T22:29:34.782Z,14.33
2022-11-10T22:32:02.212Z,14.35
2022-11-10T22:34:29.160Z,14.33
2022-11-10T22:36:55.878Z,14.33
2022-11-10T22:39:22.643Z,14.64
2022-11-10T22:42:07.851Z,14.36
2022-11-10T22:44:34.297Z,14.33
2022-11-10T22:47:02.194Z,14.31
2022-11-10T22:49:28.698Z,14.26
2022-11-10T22:51:55.492Z,14.25
2022-11-10T22:54:23.161Z,14.56
2022-11-10T22:56:50.977Z,14.27
2022-11-10T22:59:18.133Z,14.21
2022-11-10T23:01:44.939Z,14.18
2022-11-10T23:04:11.787Z,14.15
2022-11-10T23:06:38.486Z,14.13
2022-11-10T23:09:05.124Z,14.42
2022-11-10T23:11:32.469Z,14.15
2022-11-10T23:13:59.002Z,14.10
2022-11-10T23:16:27.742Z,14.10
2022-11-10T23:18:56.085Z,14.04
2022-11-10T23:21:26.200Z,14.05
2022-11-10T23:23:53.660Z,14.00
2022-11-10T23:26:25.841Z,14.04
2022-11-10T23:28:53.185Z,13.97
2022-11-10T23:31:22.905Z,14.00
2022-11-10T23:33:52.712Z,13.96
2022-11-10T23:36:20.223Z,13.93
2022-11-10T23:38:48.725Z,13.93
2022-11-10T23:41:17.620Z,13.92
2022-11-10T23:43:44.438Z,13.89
2022-11-10T23:46:12.193Z,13.90
2022-11-10T23:48:39.793Z,13.87
2022-11-10T23:51:09.510Z,13.86
2022-11-10T23:53:35.965Z,13.85
2022-11-10T23:56:05.710Z,13.87
2022-11-10T23:58:32.757Z,13.83
